Santa Cruz, CA

3:34 PM PST on March 02, 2015 (GMT -0800)
High St | Change Station
CLOSE
Current Station
Personal Weather Station
Location: Santa Cruz, CA
Elevation: 141 ft
Nearby Weather Stations

Elev 141 ft 36.98 °N, 122.03 °W | Updated 9 minutes ago

Overcast
Overcast
60.8 °F
Feels Like 60.8 °F
N
2.2
Wind Variable Wind from South

Today
High -- | Low -- °F
--% Chance of Precip.
Yesterday
High -- | Low -- °F
Precip. -- in
6:37 AM 6:03 PM
Waxing Gibbous, 93% visible
Pressure 29.84 in
Visibility 10.0 miles
Clouds Scattered Clouds 2500 ft
Dew Point 48 °F
Humidity 64%
Rainfall 0.00 in
Snow Depth Not available.
UV 3 out of 12
Pollen 7.60 out of 12
Air Quality Not available.
Flu Activity Not available.
METAR KWVI 022253Z AUTO 22008KT 10SM SCT025 15/09 A2984 RMK AO2 RAE08 SLP104 P0001 T01500089

More Conditions Fewer Conditions

Pressure 29.84 in
Visibility 10.0 miles
Clouds Scattered Clouds 2500 ft
Dew Point 48 °F
Humidity 64%
Rainfall 0.00 in
Snow Depth Not available.
UV 3 out of 12
Pollen 7.60 out of 12
Air Quality Not available.
Flu Activity Not available.
METAR KWVI 022253Z AUTO 22008KT 10SM SCT025 15/09 A2984 RMK AO2 RAE08 SLP104 P0001 T01500089

More Conditions Fewer Conditions

10-Day Weather Forecast

Almanac

Astronomy

Mar. 02, 2015 Rise Set
Actual Time
Civil Twilight
Nautical Twilight
Astronomical Twilight
Moon
Length of Visible Light
Length of Day
Tomorrow will be .
, % of the Moon is Illuminated

Today's Extremes

State Highs State Lows

Community

WunderPhotos

Upload Photos

1,801,998 photos uploaded!

WunderBlogs® & News

Nearby

Air Quality

  Air Quality AQ Index Pollutant
Not available.

Snow Depth

Station Depth Elevation

Earthquake Activity

City Distance Mag. Time & Date
Minimum magnitude displayed is 2.5.

Coastal Water Temperatures

Place Temperature

Nearby Weather Stations